sensor_id;sensor_type;location;lat;lon;timestamp;P1;durP1;ratioP1;P2;durP2;ratioP2
62798;SDS011;48842;51.046;13.796;2023-03-12T00:01:42;7.63;;;5.90;;
62798;SDS011;48842;51.046;13.796;2023-03-12T00:04:07;7.10;;;6.40;;
62798;SDS011;48842;51.046;13.796;2023-03-12T00:06:33;6.30;;;5.70;;
62798;SDS011;48842;51.046;13.796;2023-03-12T00:08:58;6.53;;;5.80;;
62798;SDS011;48842;51.046;13.796;2023-03-12T00:11:25;7.47;;;6.30;;
62798;SDS011;48842;51.046;13.796;2023-03-12T00:13:52;6.87;;;5.63;;
62798;SDS011;48842;51.046;13.796;2023-03-12T00:16:19;8.07;;;5.20;;
62798;SDS011;48842;51.046;13.796;2023-03-12T00:18:49;6.38;;;5.65;;
62798;SDS011;48842;51.046;13.796;2023-03-12T00:21:16;6.10;;;4.65;;
62798;SDS011;48842;51.046;13.796;2023-03-12T00:23:42;4.80;;;4.30;;
62798;SDS011;48842;51.046;13.796;2023-03-12T00:26:10;6.57;;;5.00;;
62798;SDS011;48842;51.046;13.796;2023-03-12T00:28:37;5.55;;;4.50;;
62798;SDS011;48842;51.046;13.796;2023-03-12T00:31:08;8.80;;;5.70;;
62798;SDS011;48842;51.046;13.796;2023-03-12T00:33:44;5.93;;;4.88;;
62798;SDS011;48842;51.046;13.796;2023-03-12T00:36:10;6.68;;;5.22;;
62798;SDS011;48842;51.046;13.796;2023-03-12T00:38:35;3.90;;;3.60;;
62798;SDS011;48842;51.046;13.796;2023-03-12T00:41:01;4.77;;;4.37;;
62798;SDS011;48842;51.046;13.796;2023-03-12T00:43:26;9.20;;;4.70;;
62798;SDS011;48842;51.046;13.796;2023-03-12T00:45:51;11.73;;;4.90;;
62798;SDS011;48842;51.046;13.796;2023-03-12T00:48:16;7.17;;;5.10;;
62798;SDS011;48842;51.046;13.796;2023-03-12T00:50:42;9.40;;;4.60;;
62798;SDS011;48842;51.046;13.796;2023-03-12T00:53:07;4.53;;;4.10;;
62798;SDS011;48842;51.046;13.796;2023-03-12T00:55:32;4.43;;;3.73;;
62798;SDS011;48842;51.046;13.796;2023-03-12T00:57:57;6.00;;;4.13;;
62798;SDS011;48842;51.046;13.796;2023-03-12T01:00:23;6.43;;;4.00;;
62798;SDS011;48842;51.046;13.796;2023-03-12T01:02:48;4.30;;;3.90;;
62798;SDS011;48842;51.046;13.796;2023-03-12T01:05:13;5.53;;;4.00;;
62798;SDS011;48842;51.046;13.796;2023-03-12T01:07:39;4.60;;;4.20;;
62798;SDS011;48842;51.046;13.796;2023-03-12T01:10:04;6.13;;;3.40;;
62798;SDS011;48842;51.046;13.796;2023-03-12T01:12:32;4.72;;;4.35;;
62798;SDS011;48842;51.046;13.796;2023-03-12T01:14:57;3.83;;;3.50;;
62798;SDS011;48842;51.046;13.796;2023-03-12T01:17:22;4.13;;;3.73;;
62798;SDS011;48842;51.046;13.796;2023-03-12T01:19:47;3.60;;;3.33;;
62798;SDS011;48842;51.046;13.796;2023-03-12T01:22:13;5.07;;;3.57;;
62798;SDS011;48842;51.046;13.796;2023-03-12T01:24:38;4.63;;;4.23;;
62798;SDS011;48842;51.046;13.796;2023-03-12T01:27:03;6.13;;;3.97;;
62798;SDS011;48842;51.046;13.796;2023-03-12T01:29:28;9.50;;;4.10;;
62798;SDS011;48842;51.046;13.796;2023-03-12T01:31:54;3.30;;;3.10;;
62798;SDS011;48842;51.046;13.796;2023-03-12T01:34:19;8.00;;;3.60;;
62798;SDS011;48842;51.046;13.796;2023-03-12T01:36:44;14.93;;;4.07;;
62798;SDS011;48842;51.046;13.796;2023-03-12T01:39:11;4.38;;;3.97;;
62798;SDS011;48842;51.046;13.796;2023-03-12T01:41:38;4.70;;;3.80;;
62798;SDS011;48842;51.046;13.796;2023-03-12T01:44:04;5.40;;;4.17;;
62798;SDS011;48842;51.046;13.796;2023-03-12T01:46:36;8.83;;;3.87;;
62798;SDS011;48842;51.046;13.796;2023-03-12T01:49:23;4.90;;;3.90;;
62798;SDS011;48842;51.046;13.796;2023-03-12T01:54:40;4.78;;;4.38;;
62798;SDS011;48842;51.046;13.796;2023-03-12T01:57:09;4.60;;;4.20;;
62798;SDS011;48842;51.046;13.796;2023-03-12T01:59:41;5.82;;;3.90;;
62798;SDS011;48842;51.046;13.796;2023-03-12T02:02:09;5.35;;;4.13;;
62798;SDS011;48842;51.046;13.796;2023-03-12T02:04:37;11.02;;;4.30;;
62798;SDS011;48842;51.046;13.796;2023-03-12T02:07:12;8.48;;;4.20;;
62798;SDS011;48842;51.046;13.796;2023-03-12T02:09:40;4.65;;;4.25;;
62798;SDS011;48842;51.046;13.796;2023-03-12T02:12:09;10.10;;;3.90;;
62798;SDS011;48842;51.046;13.796;2023-03-12T02:14:35;10.23;;;4.40;;
62798;SDS011;48842;51.046;13.796;2023-03-12T02:17:00;4.93;;;3.90;;
62798;SDS011;48842;51.046;13.796;2023-03-12T02:19:29;4.50;;;3.67;;
62798;SDS011;48842;51.046;13.796;2023-03-12T02:21:57;3.90;;;3.10;;
62798;SDS011;48842;51.046;13.796;2023-03-12T02:24:32;4.57;;;3.20;;
62798;SDS011;48842;51.046;13.796;2023-03-12T02:27:02;4.68;;;4.18;;
62798;SDS011;48842;51.046;13.796;2023-03-12T02:29:29;4.40;;;3.30;;
62798;SDS011;48842;51.046;13.796;2023-03-12T02:31:56;4.43;;;3.92;;
62798;SDS011;48842;51.046;13.796;2023-03-12T02:34:25;8.48;;;3.65;;
62798;SDS011;48842;51.046;13.796;2023-03-12T02:36:50;9.33;;;4.60;;
62798;SDS011;48842;51.046;13.796;2023-03-12T02:39:15;5.60;;;3.20;;
62798;SDS011;48842;51.046;13.796;2023-03-12T02:41:45;3.10;;;2.90;;
62798;SDS011;48842;51.046;13.796;2023-03-12T02:44:19;3.60;;;3.30;;
62798;SDS011;48842;51.046;13.796;2023-03-12T02:46:48;3.60;;;3.30;;
62798;SDS011;48842;51.046;13.796;2023-03-12T02:49:16;6.70;;;3.35;;
62798;SDS011;48842;51.046;13.796;2023-03-12T02:51:43;8.43;;;3.65;;
62798;SDS011;48842;51.046;13.796;2023-03-12T02:54:09;3.20;;;3.00;;
62798;SDS011;48842;51.046;13.796;2023-03-12T02:56:37;2.92;;;2.70;;
62798;SDS011;48842;51.046;13.796;2023-03-12T02:59:03;3.50;;;2.72;;
62798;SDS011;48842;51.046;13.796;2023-03-12T03:01:29;2.72;;;2.53;;
62798;SDS011;48842;51.046;13.796;2023-03-12T03:03:57;3.28;;;3.00;;
62798;SDS011;48842;51.046;13.796;2023-03-12T03:06:23;6.33;;;2.80;;
62798;SDS011;48842;51.046;13.796;2023-03-12T03:08:48;2.60;;;2.40;;
62798;SDS011;48842;51.046;13.796;2023-03-12T03:11:13;2.33;;;2.13;;
62798;SDS011;48842;51.046;13.796;2023-03-12T03:13:38;4.53;;;2.63;;
62798;SDS011;48842;51.046;13.796;2023-03-12T03:16:04;3.30;;;2.57;;
62798;SDS011;48842;51.046;13.796;2023-03-12T03:18:30;3.03;;;2.70;;
62798;SDS011;48842;51.046;13.796;2023-03-12T03:20:56;3.72;;;2.42;;
62798;SDS011;48842;51.046;13.796;2023-03-12T03:23:23;4.22;;;2.65;;
62798;SDS011;48842;51.046;13.796;2023-03-12T03:25:48;7.27;;;3.03;;
62798;SDS011;48842;51.046;13.796;2023-03-12T03:28:14;2.93;;;2.67;;
62798;SDS011;48842;51.046;13.796;2023-03-12T03:30:39;2.60;;;2.40;;
62798;SDS011;48842;51.046;13.796;2023-03-12T03:33:04;4.73;;;2.27;;
62798;SDS011;48842;51.046;13.796;2023-03-12T03:35:30;4.50;;;2.27;;
62798;SDS011;48842;51.046;13.796;2023-03-12T03:37:57;3.08;;;2.47;;
62798;SDS011;48842;51.046;13.796;2023-03-12T03:40:22;2.70;;;2.30;;
62798;SDS011;48842;51.046;13.796;2023-03-12T03:42:47;6.43;;;1.93;;
62798;SDS011;48842;51.046;13.796;2023-03-12T03:45:13;2.27;;;2.17;;
62798;SDS011;48842;51.046;13.796;2023-03-12T03:47:38;3.10;;;1.70;;
62798;SDS011;48842;51.046;13.796;2023-03-12T03:50:04;1.63;;;1.43;;
62798;SDS011;48842;51.046;13.796;2023-03-12T03:52:30;3.40;;;2.10;;
62798;SDS011;48842;51.046;13.796;2023-03-12T03:54:56;2.93;;;2.00;;
62798;SDS011;48842;51.046;13.796;2023-03-12T03:57:23;1.58;;;1.48;;
62798;SDS011;48842;51.046;13.796;2023-03-12T03:59:48;2.00;;;1.80;;
62798;SDS011;48842;51.046;13.796;2023-03-12T04:02:14;4.17;;;2.40;;
62798;SDS011;48842;51.046;13.796;2023-03-12T04:04:39;2.77;;;1.60;;
62798;SDS011;48842;51.046;13.796;2023-03-12T04:07:04;2.10;;;1.83;;
62798;SDS011;48842;51.046;13.796;2023-03-12T04:09:29;2.30;;;1.87;;
62798;SDS011;48842;51.046;13.796;2023-03-12T04:11:54;2.27;;;1.60;;
62798;SDS011;48842;51.046;13.796;2023-03-12T04:14:20;4.17;;;2.40;;
62798;SDS011;48842;51.046;13.796;2023-03-12T04:16:45;3.80;;;1.77;;
62798;SDS011;48842;51.046;13.796;2023-03-12T04:19:10;7.80;;;2.27;;
62798;SDS011;48842;51.046;13.796;2023-03-12T04:21:35;1.83;;;1.60;;
62798;SDS011;48842;51.046;13.796;2023-03-12T04:24:03;2.92;;;2.08;;
62798;SDS011;48842;51.046;13.796;2023-03-12T04:26:29;3.50;;;1.70;;
62798;SDS011;48842;51.046;13.796;2023-03-12T04:28:54;4.43;;;2.13;;
62798;SDS011;48842;51.046;13.796;2023-03-12T04:31:19;1.77;;;1.60;;
62798;SDS011;48842;51.046;13.796;2023-03-12T04:33:44;6.90;;;2.40;;
62798;SDS011;48842;51.046;13.796;2023-03-12T04:36:10;2.90;;;2.20;;
62798;SDS011;48842;51.046;13.796;2023-03-12T04:38:37;2.35;;;1.70;;
62798;SDS011;48842;51.046;13.796;2023-03-12T04:41:06;3.53;;;1.83;;
62798;SDS011;48842;51.046;13.796;2023-03-12T04:43:33;3.35;;;2.40;;
62798;SDS011;48842;51.046;13.796;2023-03-12T04:45:59;4.57;;;2.77;;
62798;SDS011;48842;51.046;13.796;2023-03-12T04:48:25;4.67;;;2.57;;
62798;SDS011;48842;51.046;13.796;2023-03-12T04:50:50;5.00;;;3.00;;
62798;SDS011;48842;51.046;13.796;2023-03-12T04:53:16;7.80;;;3.03;;
62798;SDS011;48842;51.046;13.796;2023-03-12T04:55:41;6.23;;;3.77;;
62798;SDS011;48842;51.046;13.796;2023-03-12T04:58:07;9.80;;;4.07;;
62798;SDS011;48842;51.046;13.796;2023-03-12T05:00:32;5.00;;;3.80;;
62798;SDS011;48842;51.046;13.796;2023-03-12T05:02:57;7.50;;;3.57;;
62798;SDS011;48842;51.046;13.796;2023-03-12T05:05:23;5.67;;;2.97;;
62798;SDS011;48842;51.046;13.796;2023-03-12T05:07:48;3.60;;;2.70;;
62798;SDS011;48842;51.046;13.796;2023-03-12T05:10:13;4.43;;;2.93;;
62798;SDS011;48842;51.046;13.796;2023-03-12T05:12:39;3.03;;;2.37;;
62798;SDS011;48842;51.046;13.796;2023-03-12T05:15:04;3.30;;;2.37;;
62798;SDS011;48842;51.046;13.796;2023-03-12T05:17:30;2.67;;;2.40;;
62798;SDS011;48842;51.046;13.796;2023-03-12T05:19:55;4.93;;;2.00;;
62798;SDS011;48842;51.046;13.796;2023-03-12T05:22:20;3.53;;;2.10;;
62798;SDS011;48842;51.046;13.796;2023-03-12T05:24:46;6.30;;;3.50;;
62798;SDS011;48842;51.046;13.796;2023-03-12T05:27:11;2.90;;;2.50;;
62798;SDS011;48842;51.046;13.796;2023-03-12T05:29:36;2.43;;;2.23;;
62798;SDS011;48842;51.046;13.796;2023-03-12T05:32:01;3.10;;;2.03;;
62798;SDS011;48842;51.046;13.796;2023-03-12T05:34:27;2.37;;;2.27;;
62798;SDS011;48842;51.046;13.796;2023-03-12T05:36:54;1.80;;;1.70;;
62798;SDS011;48842;51.046;13.796;2023-03-12T05:39:20;3.42;;;2.25;;
62798;SDS011;48842;51.046;13.796;2023-03-12T05:41:45;6.37;;;1.90;;
62798;SDS011;48842;51.046;13.796;2023-03-12T05:44:11;3.10;;;2.00;;
62798;SDS011;48842;51.046;13.796;2023-03-12T05:46:40;3.95;;;1.95;;
62798;SDS011;48842;51.046;13.796;2023-03-12T05:49:06;4.10;;;2.53;;
62798;SDS011;48842;51.046;13.796;2023-03-12T05:51:32;3.93;;;2.60;;
62798;SDS011;48842;51.046;13.796;2023-03-12T05:53:58;6.17;;;2.00;;
62798;SDS011;48842;51.046;13.796;2023-03-12T05:56:23;3.70;;;1.90;;
62798;SDS011;48842;51.046;13.796;2023-03-12T05:58:49;6.30;;;2.53;;
62798;SDS011;48842;51.046;13.796;2023-03-12T06:01:18;2.27;;;2.07;;
62798;SDS011;48842;51.046;13.796;2023-03-12T06:03:46;5.10;;;2.35;;
62798;SDS011;48842;51.046;13.796;2023-03-12T06:06:11;3.10;;;2.10;;
62798;SDS011;48842;51.046;13.796;2023-03-12T06:08:36;1.27;;;1.17;;
62798;SDS011;48842;51.046;13.796;2023-03-12T06:11:02;2.30;;;2.10;;
62798;SDS011;48842;51.046;13.796;2023-03-12T06:13:28;1.93;;;1.83;;
62798;SDS011;48842;51.046;13.796;2023-03-12T06:15:53;2.70;;;1.83;;
62798;SDS011;48842;51.046;13.796;2023-03-12T06:18:18;9.70;;;2.40;;
62798;SDS011;48842;51.046;13.796;2023-03-12T06:20:44;2.83;;;1.80;;
62798;SDS011;48842;51.046;13.796;2023-03-12T06:23:09;3.43;;;1.90;;
62798;SDS011;48842;51.046;13.796;2023-03-12T06:25:34;2.73;;;2.00;;
62798;SDS011;48842;51.046;13.796;2023-03-12T06:27:59;3.13;;;2.27;;
62798;SDS011;48842;51.046;13.796;2023-03-12T06:30:25;2.30;;;2.10;;
62798;SDS011;48842;51.046;13.796;2023-03-12T06:32:51;1.90;;;1.80;;
62798;SDS011;48842;51.046;13.796;2023-03-12T06:35:16;5.63;;;2.13;;
62798;SDS011;48842;51.046;13.796;2023-03-12T06:37:42;3.67;;;1.90;;
62798;SDS011;48842;51.046;13.796;2023-03-12T06:40:07;2.93;;;2.73;;
62798;SDS011;48842;51.046;13.796;2023-03-12T06:42:35;2.95;;;2.40;;
62798;SDS011;48842;51.046;13.796;2023-03-12T06:45:00;2.10;;;1.63;;
62798;SDS011;48842;51.046;13.796;2023-03-12T06:47:26;3.13;;;2.20;;
62798;SDS011;48842;51.046;13.796;2023-03-12T06:49:51;2.10;;;2.00;;
62798;SDS011;48842;51.046;13.796;2023-03-12T06:52:16;7.43;;;2.63;;
62798;SDS011;48842;51.046;13.796;2023-03-12T06:54:42;5.93;;;2.30;;
62798;SDS011;48842;51.046;13.796;2023-03-12T06:57:07;5.90;;;2.23;;
62798;SDS011;48842;51.046;13.796;2023-03-12T06:59:32;2.33;;;2.13;;
62798;SDS011;48842;51.046;13.796;2023-03-12T07:01:58;2.90;;;2.60;;
62798;SDS011;48842;51.046;13.796;2023-03-12T07:04:23;3.53;;;2.30;;
62798;SDS011;48842;51.046;13.796;2023-03-12T07:06:48;2.33;;;2.13;;
62798;SDS011;48842;51.046;13.796;2023-03-12T07:09:15;2.10;;;2.00;;
62798;SDS011;48842;51.046;13.796;2023-03-12T07:11:42;10.38;;;2.60;;
62798;SDS011;48842;51.046;13.796;2023-03-12T07:14:07;3.67;;;2.37;;
62798;SDS011;48842;51.046;13.796;2023-03-12T07:16:33;3.50;;;1.97;;
62798;SDS011;48842;51.046;13.796;2023-03-12T07:18:58;3.00;;;2.13;;
62798;SDS011;48842;51.046;13.796;2023-03-12T07:21:24;1.97;;;1.77;;
62798;SDS011;48842;51.046;13.796;2023-03-12T07:23:50;3.67;;;2.23;;
62798;SDS011;48842;51.046;13.796;2023-03-12T07:26:16;2.00;;;1.90;;
62798;SDS011;48842;51.046;13.796;2023-03-12T07:28:41;3.83;;;1.97;;
62798;SDS011;48842;51.046;13.796;2023-03-12T07:31:07;2.00;;;1.87;;
62798;SDS011;48842;51.046;13.796;2023-03-12T07:33:32;5.47;;;1.80;;
62798;SDS011;48842;51.046;13.796;2023-03-12T07:35:57;1.90;;;1.80;;
62798;SDS011;48842;51.046;13.796;2023-03-12T07:38:23;3.33;;;2.43;;
62798;SDS011;48842;51.046;13.796;2023-03-12T07:40:49;2.23;;;2.00;;
62798;SDS011;48842;51.046;13.796;2023-03-12T07:43:18;3.45;;;2.30;;
62798;SDS011;48842;51.046;13.796;2023-03-12T07:45:44;3.10;;;2.50;;
62798;SDS011;48842;51.046;13.796;2023-03-12T07:48:09;4.73;;;2.60;;
62798;SDS011;48842;51.046;13.796;2023-03-12T07:50:35;2.80;;;2.60;;
62798;SDS011;48842;51.046;13.796;2023-03-12T07:53:01;5.07;;;3.30;;
62798;SDS011;48842;51.046;13.796;2023-03-12T07:55:28;2.72;;;2.53;;
62798;SDS011;48842;51.046;13.796;2023-03-12T07:57:54;4.53;;;2.63;;
62798;SDS011;48842;51.046;13.796;2023-03-12T08:00:22;4.95;;;2.97;;
62798;SDS011;48842;51.046;13.796;2023-03-12T08:02:48;3.83;;;2.70;;
62798;SDS011;48842;51.046;13.796;2023-03-12T08:05:13;3.57;;;2.50;;
62798;SDS011;48842;51.046;13.796;2023-03-12T08:07:38;7.20;;;3.30;;
62798;SDS011;48842;51.046;13.796;2023-03-12T08:10:05;3.90;;;2.90;;
62798;SDS011;48842;51.046;13.796;2023-03-12T08:12:31;2.33;;;2.20;;
62798;SDS011;48842;51.046;13.796;2023-03-12T08:14:56;3.17;;;2.67;;
62798;SDS011;48842;51.046;13.796;2023-03-12T08:17:22;3.63;;;2.57;;
62798;SDS011;48842;51.046;13.796;2023-03-12T08:19:47;4.73;;;2.33;;
62798;SDS011;48842;51.046;13.796;2023-03-12T08:22:12;2.60;;;2.40;;
62798;SDS011;48842;51.046;13.796;2023-03-12T08:24:38;3.17;;;2.90;;
62798;SDS011;48842;51.046;13.796;2023-03-12T08:27:03;4.47;;;2.70;;
62798;SDS011;48842;51.046;13.796;2023-03-12T08:29:28;3.80;;;2.73;;
62798;SDS011;48842;51.046;13.796;2023-03-12T08:31:54;2.63;;;2.47;;
62798;SDS011;48842;51.046;13.796;2023-03-12T08:34:20;4.50;;;2.50;;
62798;SDS011;48842;51.046;13.796;2023-03-12T08:36:45;3.03;;;2.70;;
62798;SDS011;48842;51.046;13.796;2023-03-12T08:39:10;5.50;;;2.37;;
62798;SDS011;48842;51.046;13.796;2023-03-12T08:41:35;2.23;;;2.13;;
62798;SDS011;48842;51.046;13.796;2023-03-12T08:44:01;5.33;;;2.67;;
62798;SDS011;48842;51.046;13.796;2023-03-12T08:46:26;6.27;;;3.07;;
62798;SDS011;48842;51.046;13.796;2023-03-12T08:48:51;6.27;;;2.57;;
62798;SDS011;48842;51.046;13.796;2023-03-12T08:51:17;4.03;;;2.40;;
62798;SDS011;48842;51.046;13.796;2023-03-12T08:53:42;7.03;;;2.87;;
62798;SDS011;48842;51.046;13.796;2023-03-12T08:56:07;3.07;;;2.87;;
62798;SDS011;48842;51.046;13.796;2023-03-12T08:58:33;2.60;;;2.40;;
62798;SDS011;48842;51.046;13.796;2023-03-12T09:00:58;2.33;;;2.13;;
62798;SDS011;48842;51.046;13.796;2023-03-12T09:03:24;13.10;;;3.00;;
62798;SDS011;48842;51.046;13.796;2023-03-12T09:05:50;3.63;;;2.43;;
62798;SDS011;48842;51.046;13.796;2023-03-12T09:08:31;3.93;;;2.30;;
62798;SDS011;48842;51.046;13.796;2023-03-12T09:10:58;3.33;;;2.57;;
62798;SDS011;48842;51.046;13.796;2023-03-12T09:13:24;7.90;;;2.60;;
62798;SDS011;48842;51.046;13.796;2023-03-12T09:15:50;2.43;;;2.23;;
62798;SDS011;48842;51.046;13.796;2023-03-12T09:18:15;5.97;;;2.60;;
62798;SDS011;48842;51.046;13.796;2023-03-12T09:20:41;2.57;;;2.37;;
62798;SDS011;48842;51.046;13.796;2023-03-12T09:23:07;3.50;;;2.10;;
62798;SDS011;48842;51.046;13.796;2023-03-12T09:25:32;7.40;;;3.10;;
62798;SDS011;48842;51.046;13.796;2023-03-12T09:27:57;5.50;;;3.00;;
62798;SDS011;48842;51.046;13.796;2023-03-12T09:30:23;4.13;;;2.00;;
62798;SDS011;48842;51.046;13.796;2023-03-12T09:32:50;1.50;;;1.13;;
62798;SDS011;48842;51.046;13.796;2023-03-12T09:35:15;1.47;;;1.37;;
62798;SDS011;48842;51.046;13.796;2023-03-12T09:37:41;2.47;;;1.40;;
62798;SDS011;48842;51.046;13.796;2023-03-12T09:40:07;3.10;;;1.50;;
62798;SDS011;48842;51.046;13.796;2023-03-12T09:42:39;1.63;;;1.53;;
62798;SDS011;48842;51.046;13.796;2023-03-12T09:45:10;3.30;;;1.30;;
62798;SDS011;48842;51.046;13.796;2023-03-12T09:47:50;3.60;;;1.43;;
62798;SDS011;48842;51.046;13.796;2023-03-12T09:55:23;1.33;;;1.03;;
62798;SDS011;48842;51.046;13.796;2023-03-12T09:57:50;4.37;;;1.43;;
62798;SDS011;48842;51.046;13.796;2023-03-12T10:00:18;1.37;;;1.10;;
62798;SDS011;48842;51.046;13.796;2023-03-12T10:07:00;2.13;;;1.50;;
62798;SDS011;48842;51.046;13.796;2023-03-12T10:12:40;1.27;;;1.17;;
62798;SDS011;48842;51.046;13.796;2023-03-12T10:18:14;2.80;;;1.20;;
62798;SDS011;48842;51.046;13.796;2023-03-12T10:27:13;4.20;;;1.07;;
62798;SDS011;48842;51.046;13.796;2023-03-12T10:29:43;2.40;;;1.20;;
62798;SDS011;48842;51.046;13.796;2023-03-12T10:34:48;2.30;;;1.10;;
62798;SDS011;48842;51.046;13.796;2023-03-12T10:37:21;1.30;;;1.20;;
62798;SDS011;48842;51.046;13.796;2023-03-12T10:39:49;2.40;;;1.60;;
62798;SDS011;48842;51.046;13.796;2023-03-12T10:42:22;2.63;;;1.10;;
62798;SDS011;48842;51.046;13.796;2023-03-12T10:44:51;7.47;;;2.47;;
62798;SDS011;48842;51.046;13.796;2023-03-12T10:50:20;1.57;;;1.00;;
62798;SDS011;48842;51.046;13.796;2023-03-12T10:52:48;2.00;;;1.57;;
62798;SDS011;48842;51.046;13.796;2023-03-12T10:57:50;1.13;;;0.97;;
62798;SDS011;48842;51.046;13.796;2023-03-12T11:00:24;1.53;;;1.43;;
62798;SDS011;48842;51.046;13.796;2023-03-12T11:03:04;3.33;;;1.40;;
62798;SDS011;48842;51.046;13.796;2023-03-12T11:05:46;1.13;;;1.03;;
62798;SDS011;48842;51.046;13.796;2023-03-12T11:08:30;4.83;;;2.13;;
62798;SDS011;48842;51.046;13.796;2023-03-12T11:10:59;3.70;;;1.00;;
62798;SDS011;48842;51.046;13.796;2023-03-12T11:13:37;2.00;;;1.03;;
62798;SDS011;48842;51.046;13.796;2023-03-12T11:18:57;0.93;;;0.93;;
62798;SDS011;48842;51.046;13.796;2023-03-12T11:21:28;1.70;;;1.03;;
62798;SDS011;48842;51.046;13.796;2023-03-12T11:26:21;1.90;;;1.20;;
62798;SDS011;48842;51.046;13.796;2023-03-12T11:29:00;1.80;;;1.10;;
62798;SDS011;48842;51.046;13.796;2023-03-12T11:31:40;1.07;;;1.07;;
62798;SDS011;48842;51.046;13.796;2023-03-12T11:34:21;1.17;;;0.97;;
62798;SDS011;48842;51.046;13.796;2023-03-12T11:36:53;4.87;;;2.10;;
62798;SDS011;48842;51.046;13.796;2023-03-12T11:42:19;3.27;;;1.20;;
62798;SDS011;48842;51.046;13.796;2023-03-12T11:45:06;1.37;;;1.03;;
62798;SDS011;48842;51.046;13.796;2023-03-12T11:47:54;2.40;;;1.30;;
62798;SDS011;48842;51.046;13.796;2023-03-12T11:50:44;2.20;;;1.20;;
62798;SDS011;48842;51.046;13.796;2023-03-12T11:55:55;1.87;;;1.20;;
62798;SDS011;48842;51.046;13.796;2023-03-12T11:58:40;2.00;;;1.60;;
62798;SDS011;48842;51.046;13.796;2023-03-12T12:01:32;1.70;;;1.60;;
62798;SDS011;48842;51.046;13.796;2023-03-12T12:09:47;1.53;;;1.43;;
62798;SDS011;48842;51.046;13.796;2023-03-12T12:12:30;3.60;;;1.90;;
62798;SDS011;48842;51.046;13.796;2023-03-12T12:25:59;4.03;;;1.63;;
62798;SDS011;48842;51.046;13.796;2023-03-12T12:31:06;3.57;;;1.50;;
62798;SDS011;48842;51.046;13.796;2023-03-12T12:36:18;3.07;;;1.70;;
62798;SDS011;48842;51.046;13.796;2023-03-12T12:38:45;5.20;;;1.83;;
62798;SDS011;48842;51.046;13.796;2023-03-12T12:41:19;4.73;;;2.03;;
62798;SDS011;48842;51.046;13.796;2023-03-12T12:43:54;2.90;;;1.93;;
62798;SDS011;48842;51.046;13.796;2023-03-12T12:46:28;2.27;;;2.17;;
62798;SDS011;48842;51.046;13.796;2023-03-12T12:48:58;5.70;;;2.50;;
62798;SDS011;48842;51.046;13.796;2023-03-12T12:51:32;3.13;;;2.10;;
62798;SDS011;48842;51.046;13.796;2023-03-12T12:54:17;2.77;;;1.70;;
62798;SDS011;48842;51.046;13.796;2023-03-12T12:56:52;3.83;;;2.03;;
62798;SDS011;48842;51.046;13.796;2023-03-12T12:59:26;2.43;;;2.03;;
62798;SDS011;48842;51.046;13.796;2023-03-12T13:02:18;3.27;;;2.40;;
62798;SDS011;48842;51.046;13.796;2023-03-12T13:04:46;2.37;;;2.07;;
62798;SDS011;48842;51.046;13.796;2023-03-12T13:09:45;4.23;;;2.23;;
62798;SDS011;48842;51.046;13.796;2023-03-12T13:12:49;8.00;;;2.47;;
62798;SDS011;48842;51.046;13.796;2023-03-12T13:20:24;4.20;;;2.83;;
62798;SDS011;48842;51.046;13.796;2023-03-12T13:23:11;3.30;;;2.40;;
62798;SDS011;48842;51.046;13.796;2023-03-12T13:36:23;1.67;;;1.53;;
62798;SDS011;48842;51.046;13.796;2023-03-12T13:38:54;6.47;;;3.40;;
62798;SDS011;48842;51.046;13.796;2023-03-12T13:41:29;3.87;;;2.20;;
62798;SDS011;48842;51.046;13.796;2023-03-12T13:43:57;2.07;;;1.97;;
62798;SDS011;48842;51.046;13.796;2023-03-12T13:46:28;3.63;;;1.90;;
62798;SDS011;48842;51.046;13.796;2023-03-12T13:49:04;6.20;;;1.90;;
62798;SDS011;48842;51.046;13.796;2023-03-12T13:51:41;3.13;;;1.87;;
62798;SDS011;48842;51.046;13.796;2023-03-12T13:54:17;9.03;;;2.10;;
62798;SDS011;48842;51.046;13.796;2023-03-12T13:56:57;2.30;;;1.90;;
62798;SDS011;48842;51.046;13.796;2023-03-12T13:59:26;4.93;;;2.47;;
62798;SDS011;48842;51.046;13.796;2023-03-12T14:01:55;2.87;;;1.90;;
62798;SDS011;48842;51.046;13.796;2023-03-12T14:04:33;6.17;;;1.70;;
62798;SDS011;48842;51.046;13.796;2023-03-12T14:07:09;5.00;;;2.23;;
62798;SDS011;48842;51.046;13.796;2023-03-12T14:09:54;3.13;;;1.90;;
62798;SDS011;48842;51.046;13.796;2023-03-12T14:12:24;5.70;;;1.73;;
62798;SDS011;48842;51.046;13.796;2023-03-12T14:18:08;2.20;;;1.43;;
62798;SDS011;48842;51.046;13.796;2023-03-12T14:20:39;4.47;;;1.40;;
62798;SDS011;48842;51.046;13.796;2023-03-12T14:23:19;2.03;;;1.57;;
62798;SDS011;48842;51.046;13.796;2023-03-12T14:25:46;2.53;;;1.73;;
62798;SDS011;48842;51.046;13.796;2023-03-12T14:28:16;4.17;;;1.93;;
62798;SDS011;48842;51.046;13.796;2023-03-12T14:33:31;2.93;;;1.37;;
62798;SDS011;48842;51.046;13.796;2023-03-12T14:38:44;2.33;;;1.90;;
62798;SDS011;48842;51.046;13.796;2023-03-12T14:41:21;2.47;;;1.47;;
62798;SDS011;48842;51.046;13.796;2023-03-12T14:44:03;5.47;;;2.10;;
62798;SDS011;48842;51.046;13.796;2023-03-12T14:46:30;4.60;;;2.73;;
62798;SDS011;48842;51.046;13.796;2023-03-12T14:48:56;5.00;;;2.20;;
62798;SDS011;48842;51.046;13.796;2023-03-12T14:51:25;3.73;;;2.40;;
62798;SDS011;48842;51.046;13.796;2023-03-12T14:53:53;4.50;;;2.00;;
62798;SDS011;48842;51.046;13.796;2023-03-12T14:59:03;2.60;;;2.40;;
62798;SDS011;48842;51.046;13.796;2023-03-12T15:01:44;2.20;;;2.00;;
62798;SDS011;48842;51.046;13.796;2023-03-12T15:04:14;5.33;;;2.63;;
62798;SDS011;48842;51.046;13.796;2023-03-12T15:06:44;3.87;;;2.07;;
62798;SDS011;48842;51.046;13.796;2023-03-12T15:09:17;2.50;;;2.30;;
62798;SDS011;48842;51.046;13.796;2023-03-12T15:11:50;4.30;;;2.40;;
62798;SDS011;48842;51.046;13.796;2023-03-12T15:14:17;3.40;;;2.80;;
62798;SDS011;48842;51.046;13.796;2023-03-12T15:16:43;2.90;;;2.23;;
62798;SDS011;48842;51.046;13.796;2023-03-12T15:19:11;5.93;;;3.03;;
62798;SDS011;48842;51.046;13.796;2023-03-12T15:21:38;5.33;;;3.13;;
62798;SDS011;48842;51.046;13.796;2023-03-12T15:24:04;6.00;;;2.40;;
62798;SDS011;48842;51.046;13.796;2023-03-12T15:26:31;3.83;;;3.00;;
62798;SDS011;48842;51.046;13.796;2023-03-12T15:29:23;6.20;;;2.73;;
62798;SDS011;48842;51.046;13.796;2023-03-12T15:31:51;2.53;;;2.33;;
62798;SDS011;48842;51.046;13.796;2023-03-12T15:34:27;3.73;;;2.80;;
62798;SDS011;48842;51.046;13.796;2023-03-12T15:36:59;6.20;;;2.57;;
62798;SDS011;48842;51.046;13.796;2023-03-12T15:39:30;6.60;;;3.03;;
62798;SDS011;48842;51.046;13.796;2023-03-12T15:42:01;5.63;;;3.47;;
62798;SDS011;48842;51.046;13.796;2023-03-12T15:45:15;4.93;;;3.67;;
62798;SDS011;48842;51.046;13.796;2023-03-12T15:47:23;5.20;;;3.37;;
62798;SDS011;48842;51.046;13.796;2023-03-12T15:50:17;6.00;;;3.80;;
62798;SDS011;48842;51.046;13.796;2023-03-12T15:52:57;7.70;;;3.60;;
62798;SDS011;48842;51.046;13.796;2023-03-12T15:55:27;5.20;;;3.60;;
62798;SDS011;48842;51.046;13.796;2023-03-12T15:57:55;4.00;;;2.83;;
62798;SDS011;48842;51.046;13.796;2023-03-12T16:00:22;5.67;;;3.27;;
62798;SDS011;48842;51.046;13.796;2023-03-12T16:05:18;4.90;;;3.40;;
62798;SDS011;48842;51.046;13.796;2023-03-12T16:07:45;4.00;;;3.60;;
62798;SDS011;48842;51.046;13.796;2023-03-12T16:10:14;6.57;;;4.47;;
62798;SDS011;48842;51.046;13.796;2023-03-12T16:12:42;8.60;;;3.63;;
62798;SDS011;48842;51.046;13.796;2023-03-12T16:15:12;5.20;;;4.17;;
62798;SDS011;48842;51.046;13.796;2023-03-12T16:17:39;7.00;;;4.50;;
62798;SDS011;48842;51.046;13.796;2023-03-12T16:20:04;7.20;;;5.40;;